Time;durP1;ratioP1;P1;durP2;ratioP2;P2;SDS_P1;SDS_P2;PMS_P1;PMS_P2;Temp;Humidity;BMP_temperature;BMP_pressure;BME280_temperature;BME280_humidity;BME280_pressure;Samples;Min_cycle;Max_cycle;Signal;HPM_P1;HPM_P2
2024/04/23 00:02:05;;;;;;;21.13;15.00;;;4.00;72.40;;;;;;5450314;26;20325;-71
2024/04/23 00:04:31;;;;;;;21.57;15.00;;;3.90;70.20;;;;;;5452056;26;20503;-72
2024/04/23 00:06:58;;;;;;;20.30;13.47;;;3.50;72.70;;;;;;5451811;26;20359;-71
2024/04/23 00:09:24;;;;;;;19.33;13.95;;;3.60;72.90;;;;;;5451852;26;20329;-71
2024/04/23 00:11:50;;;;;;;18.80;13.40;;;3.70;70.90;;;;;;5451411;26;21219;-71
2024/04/23 00:14:15;;;;;;;19.50;13.55;;;3.70;71.50;;;;;;5449726;26;20380;-71
2024/04/23 00:16:41;;;;;;;18.00;13.10;;;3.70;77.40;;;;;;5448690;26;20373;-72
2024/04/23 00:19:06;;;;;;;20.27;13.80;;;3.80;70.20;;;;;;5450642;26;20331;-72
2024/04/23 00:21:32;;;;;;;20.73;12.37;;;3.80;68.50;;;;;;5451422;26;20329;-72
2024/04/23 00:23:58;;;;;;;17.90;12.70;;;3.70;68.40;;;;;;5451544;26;20887;-71
2024/04/23 00:26:23;;;;;;;16.80;12.07;;;3.60;74.40;;;;;;5451204;26;20333;-70
2024/04/23 00:28:49;;;;;;;18.27;12.77;;;3.70;68.50;;;;;;5451942;26;20325;-70
2024/04/23 00:31:15;;;;;;;16.33;11.70;;;3.80;67.00;;;;;;5452438;26;20324;-71
2024/04/23 00:33:40;;;;;;;18.65;12.18;;;3.90;71.70;;;;;;5449658;26;20668;-71
2024/04/23 00:36:06;;;;;;;17.38;11.80;;;3.80;67.10;;;;;;5450902;26;20825;-73
2024/04/23 00:38:31;;;;;;;18.50;12.07;;;3.70;68.00;;;;;;5451508;26;20415;-73
2024/04/23 00:40:57;;;;;;;15.63;10.93;;;3.90;65.20;;;;;;5450900;26;20345;-71
2024/04/23 00:43:22;;;;;;;15.30;10.97;;;4.20;70.90;;;;;;5451204;26;20791;-71
2024/04/23 00:45:55;;;;;;;15.37;11.33;;;4.10;62.60;;;;;;5450758;26;20336;-71
2024/04/23 00:48:22;;;;;;;15.52;10.88;;;4.10;61.80;;;;;;5449205;26;20422;-72
2024/04/23 00:50:48;;;;;;;14.90;11.00;;;4.20;60.00;;;;;;5451062;26;20380;-72
2024/04/23 00:53:14;;;;;;;17.20;10.70;;;4.20;58.40;;;;;;5450830;26;20329;-72
2024/04/23 00:55:41;;;;;;;16.00;11.10;;;4.20;59.90;;;;;;5450405;26;20377;-71
2024/04/23 00:58:07;;;;;;;18.60;11.60;;;4.10;59.90;;;;;;5450632;26;20380;-71
2024/04/23 01:00:33;;;;;;;19.48;11.73;;;4.00;60.70;;;;;;5449336;26;20361;-72
2024/04/23 01:02:59;;;;;;;15.07;10.60;;;4.00;61.40;;;;;;5451098;26;20376;-72
2024/04/23 01:05:25;;;;;;;16.33;10.70;;;4.10;60.40;;;;;;5450408;26;20348;-72
2024/04/23 01:07:50;;;;;;;14.77;10.13;;;3.90;65.80;;;;;;5450834;26;20325;-71
2024/04/23 01:10:16;;;;;;;17.50;10.77;;;4.10;57.70;;;;;;5450836;26;20823;-71
2024/04/23 01:12:42;;;;;;;17.77;11.18;;;3.90;59.10;;;;;;5452163;26;20344;-72
2024/04/23 01:15:09;;;;;;;15.88;10.32;;;3.40;63.70;;;;;;5451264;26;20357;-71
2024/04/23 01:17:39;;;;;;;15.65;10.88;;;3.50;63.40;;;;;;5449321;26;20819;-71
2024/04/23 01:20:08;;;;;;;17.27;10.40;;;3.70;62.90;;;;;;5451413;26;20317;-71
2024/04/23 01:22:43;;;;;;;15.07;10.30;;;3.90;59.60;;;;;;5451208;26;20333;-71
2024/04/23 01:25:18;;;;;;;17.88;10.10;;;5.00;61.90;;;;;;5449539;26;20325;-71
2024/04/23 01:27:44;;;;;;;14.70;10.52;;;3.80;59.80;;;;;;5451580;26;20667;-71
2024/04/23 01:30:11;;;;;;;15.10;10.27;;;4.20;65.60;;;;;;5450992;26;20671;-71
2024/04/23 01:32:39;;;;;;;16.50;10.18;;;3.80;61.40;;;;;;5451297;26;20333;-71
2024/04/23 01:35:07;;;;;;;15.77;11.20;;;3.70;57.50;;;;;;5450931;26;20324;-71
2024/04/23 01:37:34;;;;;;;15.88;11.30;;;5.00;67.20;;;;;;5449454;26;20374;-71
2024/04/23 01:40:01;;;;;;;15.60;11.20;;;3.80;66.70;;;;;;5451157;26;20373;-71
2024/04/23 01:42:28;;;;;;;15.67;11.20;;;3.40;60.40;;;;;;5451498;26;20847;-71
2024/04/23 01:44:54;;;;;;;19.27;12.10;;;3.40;62.60;;;;;;5450899;26;20671;-72
2024/04/23 01:47:19;;;;;;;17.20;11.82;;;3.60;66.70;;;;;;5451875;26;20329;-70
2024/04/23 01:49:45;;;;;;;15.87;11.20;;;3.20;64.70;;;;;;5450286;26;21147;-71
2024/04/23 01:52:11;;;;;;;16.90;11.53;;;3.20;73.00;;;;;;5451752;26;20341;-71
2024/04/23 01:54:38;;;;;;;17.20;11.45;;;3.30;64.70;;;;;;5455585;26;20373;-71
2024/04/23 01:57:06;;;;;;;18.60;11.07;;;3.20;70.10;;;;;;5454185;26;20329;-71
2024/04/23 01:59:32;;;;;;;15.32;10.90;;;3.20;64.40;;;;;;5458499;26;21047;-72
2024/04/23 02:02:01;;;;;;;15.95;10.52;;;3.20;63.60;;;;;;5458533;26;20329;-71
2024/04/23 02:04:28;;;;;;;17.02;11.18;;;3.50;70.50;;;;;;5454848;26;20337;-70
2024/04/23 02:06:54;;;;;;;17.13;12.10;;;3.30;62.90;;;;;;5450975;26;20804;-71
2024/04/23 02:09:21;;;;;;;17.27;12.50;;;3.20;63.70;;;;;;5452160;26;20368;-71
2024/04/23 02:11:46;;;;;;;18.10;12.18;;;2.90;72.40;;;;;;5455802;26;20893;-71
2024/04/23 02:14:12;;;;;;;19.83;13.65;;;3.10;75.50;;;;;;5457959;26;20329;-72
2024/04/23 02:16:38;;;;;;;19.15;13.43;;;2.90;74.00;;;;;;5452409;26;20369;-70
2024/04/23 02:19:03;;;;;;;18.88;13.50;;;2.90;70.40;;;;;;5456666;26;20402;-71
2024/04/23 02:21:29;;;;;;;18.30;13.30;;;;;;;;;;5454686;26;20895;-72
2024/04/23 02:23:55;;;;;;;22.20;14.20;;;2.60;73.60;;;;;;5450359;26;20777;-71
2024/04/23 02:26:20;;;;;;;19.73;14.20;;;2.40;77.20;;;;;;5452517;26;20329;-72
2024/04/23 02:28:46;;;;;;;21.05;13.93;;;2.30;78.90;;;;;;5453550;26;20407;-71
2024/04/23 02:31:11;;;;;;;20.35;13.70;;;3.60;87.50;;;;;;5454839;26;20369;-71
2024/04/23 02:33:37;;;;;;;19.15;13.60;;;2.80;78.60;;;;;;5453886;26;20822;-72
2024/04/23 02:36:03;;;;;;;21.73;14.52;;;2.40;78.10;;;;;;5452627;26;20359;-71
2024/04/23 02:38:28;;;;;;;21.07;14.17;;;2.30;79.30;;;;;;5448780;26;20325;-71
2024/04/23 02:40:54;;;;;;;22.42;14.82;;;1.80;83.60;;;;;;5451642;26;20322;-71
2024/04/23 02:43:19;;;;;;;21.90;15.30;;;1.90;82.50;;;;;;5456799;26;20328;-71
2024/04/23 02:45:45;;;;;;;22.98;16.08;;;2.00;83.40;;;;;;5456261;26;20325;-72
2024/04/23 02:48:10;;;;;;;22.35;15.80;;;1.80;89.60;;;;;;5457945;26;20799;-72
2024/04/23 02:50:36;;;;;;;21.27;13.70;;;1.80;85.20;;;;;;5455918;26;20325;-71
2024/04/23 02:53:02;;;;;;;22.00;14.90;;;1.70;91.80;;;;;;5451239;26;20325;-71
2024/04/23 02:55:27;;;;;;;22.37;14.60;;;1.40;85.00;;;;;;5452911;26;20336;-71
2024/04/23 02:57:53;;;;;;;21.00;14.97;;;1.70;90.10;;;;;;5455055;26;20369;-72
2024/04/23 03:00:18;;;;;;;23.30;14.67;;;1.70;87.10;;;;;;5461834;26;20325;-72
2024/04/23 03:02:44;;;;;;;19.10;14.40;;;2.00;84.20;;;;;;5467538;26;20369;-72
2024/04/23 03:05:09;;;;;;;20.50;14.13;;;1.90;92.10;;;;;;5468297;26;20309;-72
2024/04/23 03:07:35;;;;;;;22.23;15.20;;;1.80;85.00;;;;;;5461345;26;20333;-70
2024/04/23 03:10:01;;;;;;;21.17;15.18;;;;;;;;;;5454751;26;20442;-72
2024/04/23 03:12:27;;;;;;;22.27;14.77;;;1.70;87.80;;;;;;5454589;26;20361;-72
2024/04/23 03:14:52;;;;;;;21.67;14.00;;;1.50;94.20;;;;;;5455037;26;20333;-71
2024/04/23 03:17:18;;;;;;;22.63;15.13;;;1.50;88.60;;;;;;5454070;26;20365;-70
2024/04/23 03:19:43;;;;;;;23.07;16.30;;;1.50;89.10;;;;;;5455939;26;20317;-71
2024/04/23 03:22:09;;;;;;;23.50;15.93;;;1.20;96.40;;;;;;5455274;26;20313;-71
2024/04/23 03:24:34;;;;;;;23.58;15.75;;;1.40;90.10;;;;;;5453135;26;20325;-72
2024/04/23 03:27:00;;;;;;;23.02;14.98;;;1.50;90.90;;;;;;5454609;26;20746;-72
2024/04/23 03:29:26;;;;;;;25.13;15.60;;;1.40;90.40;;;;;;5454710;26;20450;-72
2024/04/23 03:32:03;;;;;;;25.43;15.60;;;1.70;98.00;;;;;;5455004;26;20823;-72
2024/04/23 03:34:29;;;;;;;22.42;14.90;;;1.40;97.60;;;;;;5454138;26;20843;-71
2024/04/23 03:36:55;;;;;;;21.45;14.40;;;2.00;89.60;;;;;;5452381;26;20423;-70
2024/04/23 03:39:21;;;;;;;27.65;15.50;;;2.10;84.70;;;;;;5453927;26;20329;-70
2024/04/23 03:41:59;;;;;;;21.85;15.13;;;2.30;91.00;;;;;;5450689;26;20395;-71
2024/04/23 03:44:25;;;;;;;21.40;14.32;;;2.00;82.90;;;;;;5447472;26;20337;-71
2024/04/23 03:46:51;;;;;;;21.17;14.90;;;1.70;84.60;;;;;;5447187;26;20359;-71
2024/04/23 03:49:17;;;;;;;20.60;14.43;;;1.60;85.80;;;;;;5447883;26;20321;-71
2024/04/23 03:51:42;;;;;;;21.25;14.30;;;1.60;87.40;;;;;;5449082;26;20330;-71
2024/04/23 03:54:08;;;;;;;21.17;14.73;;;1.60;88.40;;;;;;5452692;26;20327;-70
2024/04/23 03:56:34;;;;;;;21.42;14.10;;;2.20;94.80;;;;;;5452571;26;20718;-71
2024/04/23 03:58:59;;;;;;;18.63;14.23;;;1.80;86.90;;;;;;5451859;26;20414;-70
2024/04/23 04:01:25;;;;;;;19.70;12.80;;;2.00;84.70;;;;;;5454813;26;20325;-70
2024/04/23 04:06:35;;;;;;;19.27;12.95;;;2.20;79.70;;;;;;5461422;26;20362;-71
2024/04/23 04:09:00;;;;;;;19.60;13.40;;;2.50;85.00;;;;;;5461095;26;20332;-70
2024/04/23 04:11:31;;;;;;;17.07;12.80;;;2.20;75.90;;;;;;5462032;26;20350;-70
2024/04/23 04:13:58;;;;;;;21.10;13.25;;;2.10;75.60;;;;;;5462221;26;20356;-71
2024/04/23 04:16:23;;;;;;;24.25;13.57;;;2.00;79.70;;;;;;5459016;26;20325;-71
2024/04/23 04:18:49;;;;;;;19.30;13.20;;;2.10;80.30;;;;;;5459431;26;20357;-71
2024/04/23 04:21:15;;;;;;;23.35;14.77;;;1.90;86.60;;;;;;5461628;26;20321;-71
2024/04/23 04:23:40;;;;;;;20.73;14.13;;;1.60;79.50;;;;;;5460988;26;20360;-71
2024/04/23 04:26:10;;;;;;;21.98;14.35;;;1.40;91.10;;;;;;5458860;26;20852;-70
2024/04/23 04:28:36;;;;;;;23.63;15.70;;;1.40;85.80;;;;;;5457496;26;20385;-72
2024/04/23 04:31:01;;;;;;;28.13;18.53;;;1.80;96.50;;;;;;5456374;26;20325;-72
2024/04/23 04:33:27;;;;;;;27.40;17.80;;;1.60;88.30;;;;;;5455285;26;20395;-72
2024/04/23 04:35:53;;;;;;;24.90;16.30;;;1.50;87.60;;;;;;5453140;26;20347;-72
2024/04/23 04:38:18;;;;;;;27.67;16.40;;;1.30;94.30;;;;;;5453534;26;20328;-70
2024/04/23 04:40:44;;;;;;;26.63;16.67;;;2.20;92.70;;;;;;5452733;26;20363;-70
2024/04/23 04:43:09;;;;;;;29.23;17.83;;;1.40;92.40;;;;;;5452885;26;20325;-72
2024/04/23 04:45:35;;;;;;;23.90;15.97;;;1.30;91.80;;;;;;5453364;26;20400;-70
2024/04/23 04:48:00;;;;;;;23.50;15.30;;;1.40;99.90;;;;;;5452326;26;20365;-70
2024/04/23 04:50:26;;;;;;;22.38;14.35;;;1.60;90.80;;;;;;5453652;26;20377;-71
2024/04/23 04:52:51;;;;;;;21.23;14.73;;;1.40;98.10;;;;;;5486136;21;20367;-71
2024/04/23 04:55:18;;;;;;;23.13;14.85;;;1.60;94.10;;;;;;5488510;26;20354;-72
2024/04/23 04:57:44;;;;;;;29.27;18.00;;;1.80;88.80;;;;;;5489136;26;20326;-72
2024/04/23 05:00:10;;;;;;;23.93;15.53;;;1.70;97.70;;;;;;5485930;26;20815;-72
2024/04/23 05:02:35;;;;;;;22.73;16.38;;;1.70;90.60;;;;;;5487381;26;20385;-70
2024/04/23 05:05:01;;;;;;;24.43;15.63;;;1.70;91.10;;;;;;5486798;26;20903;-72
2024/04/23 05:07:26;;;;;;;27.73;17.30;;;1.70;91.10;;;;;;5487764;26;20384;-72
2024/04/23 05:09:52;;;;;;;26.70;16.10;;;2.00;99.90;;;;;;5487507;26;20334;-73
2024/04/23 05:12:18;;;;;;;22.20;15.43;;;1.90;91.00;;;;;;5455173;26;20368;-72
2024/04/23 05:14:43;;;;;;;22.60;15.40;;;2.00;90.30;;;;;;5487264;26;20741;-71
2024/04/23 05:17:09;;;;;;;23.63;15.73;;;2.00;96.30;;;;;;5488427;26;20381;-72
2024/04/23 05:19:34;;;;;;;23.25;15.18;;;2.30;87.00;;;;;;5487288;26;20436;-72
2024/04/23 05:22:00;;;;;;;20.88;15.27;;;2.70;86.70;;;;;;5487503;26;20361;-71
2024/04/23 05:24:25;;;;;;;20.85;14.05;;;2.30;92.70;;;;;;5487337;26;20365;-71
2024/04/23 05:26:51;;;;;;;23.85;14.75;;;2.60;82.20;;;;;;5487732;26;20334;-72
2024/04/23 05:29:16;;;;;;;22.70;14.75;;;2.60;80.80;;;;;;5488282;26;20385;-71
2024/04/23 05:34:33;;;;;;;22.25;15.05;;;2.70;78.90;;;;;;5458827;26;20776;-73
2024/04/23 05:36:59;;;;;;;27.10;15.20;;;2.80;80.20;;;;;;5487950;26;20318;-72
2024/04/23 05:39:24;;;;;;;19.80;13.73;;;3.10;87.00;;;;;;5486546;26;20447;-72
2024/04/23 05:41:51;;;;;;;21.00;13.20;;;3.10;77.90;;;;;;5486248;26;20374;-71
2024/04/23 05:44:17;;;;;;;21.90;13.70;;;3.20;75.80;;;;;;5486883;26;20330;-72
2024/04/23 05:46:43;;;;;;;19.93;13.40;;;3.30;76.40;;;;;;5486521;26;20337;-72
2024/04/23 05:49:46;;;;;;;19.35;12.60;;;3.40;74.90;;;;;;5486568;26;20330;-72
2024/04/23 05:52:49;;;;;;;18.73;12.63;;;3.50;73.70;;;;;;5485717;26;20371;-72
2024/04/23 05:55:38;;;;;;;20.00;11.82;;;3.60;73.00;;;;;;5486017;26;20330;-72
2024/04/23 05:58:07;;;;;;;27.27;13.43;;;3.80;76.90;;;;;;5486589;26;20680;-72
2024/04/23 06:00:34;;;;;;;25.38;13.95;;;3.90;79.80;;;;;;5486386;26;20318;-72
2024/04/23 06:03:00;;;;;;;26.73;15.37;;;3.90;72.30;;;;;;5486371;26;20741;-72
2024/04/23 06:05:25;;;;;;;30.17;15.95;;;4.60;69.80;;;;;;5486383;26;20342;-72
2024/04/23 06:07:55;;;;;;;26.75;14.57;;;4.20;65.70;;;;;;5456519;26;20330;-71
2024/04/23 06:10:21;;;;;;;23.83;13.07;;;4.40;60.20;;;;;;5486498;26;20352;-72
2024/04/23 06:12:47;;;;;;;26.30;13.30;;;4.50;61.70;;;;;;5486694;26;20815;-72
2024/04/23 06:15:13;;;;;;;25.90;13.13;;;4.60;53.40;;;;;;5486405;26;20330;-73
2024/04/23 06:17:38;;;;;;;22.60;13.10;;;2.70;60.00;;;;;;5485017;26;20432;-72
2024/04/23 06:20:05;;;;;;;24.27;12.88;;;4.90;60.50;;;;;;5486455;26;20424;-70
2024/04/23 06:22:35;;;;;;;24.73;12.50;;;4.90;49.60;;;;;;5486254;26;20338;-72
2024/04/23 06:25:03;;;;;;;20.58;12.00;;;4.90;56.70;;;;;;5485527;26;20369;-73
2024/04/23 06:27:31;;;;;;;19.08;11.43;;;5.10;47.00;;;;;;5485715;26;20326;-72
2024/04/23 06:30:03;;;;;;;21.55;12.30;;;5.20;47.30;;;;;;5454099;26;20343;-72
2024/04/23 06:32:29;;;;;;;21.95;11.40;;;5.40;45.60;;;;;;5486936;26;20403;-71
2024/04/23 06:34:54;;;;;;;21.03;12.43;;;5.80;51.90;;;;;;5487248;26;20455;-72
2024/04/23 06:37:20;;;;;;;19.80;11.90;;;5.50;44.30;;;;;;5488320;26;20364;-73
2024/04/23 06:39:46;;;;;;;20.60;11.50;;;5.60;42.30;;;;;;5489829;26;20366;-72
2024/04/23 06:42:11;;;;;;;17.90;10.70;;;5.90;49.30;;;;;;5487783;26;20485;-73
2024/04/23 06:44:37;;;;;;;16.03;10.23;;;5.60;40.40;;;;;;5489867;26;20812;-72
2024/04/23 06:47:02;;;;;;;17.80;10.50;;;5.70;40.30;;;;;;5489620;26;20383;-71
2024/04/23 06:49:28;;;;;;;19.63;10.70;;;5.60;42.10;;;;;;5489373;26;20334;-72
2024/04/23 06:51:55;;;;;;;16.13;10.30;;;5.80;38.50;;;;;;5487203;26;20378;-72
2024/04/23 06:54:20;;;;;;;14.37;8.97;;;5.90;37.40;;;;;;5476894;26;20712;-72
2024/04/23 06:56:48;;;;;;;16.83;10.57;;;6.00;37.20;;;;;;5470827;26;20330;-71
2024/04/23 06:59:13;;;;;;;17.45;9.95;;;6.10;43.60;;;;;;5473385;26;20345;-71
2024/04/23 07:01:39;;;;;;;15.23;8.30;;;6.40;38.00;;;;;;5461113;26;20340;-71
2024/04/23 07:04:05;;;;;;;15.27;9.27;;;6.40;40.90;;;;;;5452336;26;20800;-73
2024/04/23 07:06:31;;;;;;;14.32;8.88;;;6.50;34.20;;;;;;5450731;26;20361;-72
2024/04/23 07:08:56;;;;;;;18.70;8.20;;;6.50;33.60;;;;;;5463857;26;20404;-72
2024/04/23 07:11:22;;;;;;;11.60;7.30;;;6.60;33.00;;;;;;5459164;26;20738;-72
2024/04/23 07:13:49;;;;;;;13.75;7.82;;;6.70;37.40;;;;;;5452811;26;20378;-71
2024/04/23 07:16:15;;;;;;;13.63;8.10;;;6.70;32.80;;;;;;5482926;26;20669;-72
2024/04/23 07:18:41;;;;;;;14.90;9.15;;;6.80;35.80;;;;;;5484550;26;20338;-72
2024/04/23 07:21:07;;;;;;;15.68;9.38;;;7.00;36.00;;;;;;5485263;26;20366;-71
2024/04/23 07:23:33;;;;;;;17.60;9.30;;;7.00;29.20;;;;;;5472131;26;20836;-72
2024/04/23 07:25:58;;;;;;;11.97;7.67;;;7.00;30.20;;;;;;5448409;26;20348;-71
2024/04/23 07:28:24;;;;;;;12.80;8.03;;;7.40;36.80;;;;;;5450086;26;20333;-71
2024/04/23 07:30:50;;;;;;;16.35;8.50;;;7.30;30.40;;;;;;5452062;26;20341;-71
2024/04/23 07:33:16;;;;;;;13.27;8.02;;;7.30;35.70;;;;;;5422603;26;20366;-70
2024/04/23 07:35:43;;;;;;;13.85;7.78;;;7.50;30.20;;;;;;5480499;26;20820;-71
2024/04/23 07:38:12;;;;;;;13.10;7.73;;;7.30;27.70;;;;;;5485793;26;20333;-70
2024/04/23 07:40:39;;;;;;;14.40;8.52;;;7.50;34.40;;;;;;5488846;26;20326;-71
2024/04/23 07:43:05;;;;;;;13.00;7.90;;;7.40;28.10;;;;;;5481729;26;20326;-71
2024/04/23 07:45:34;;;;;;;12.50;7.47;;;7.40;28.30;;;;;;5487970;26;20678;-71
2024/04/23 07:48:00;;;;;;;13.20;7.10;;;7.90;34.20;;;;;;5488684;26;20677;-71
2024/04/23 07:50:26;;;;;;;13.10;7.50;;;7.90;26.80;;;;;;5489160;26;20377;-71
2024/04/23 07:52:52;;;;;;;9.67;6.47;;;8.30;26.60;;;;;;5488388;26;20338;-72
2024/04/23 07:55:17;;;;;;;12.73;6.83;;;8.40;22.90;;;;;;5487453;26;20317;-71
2024/04/23 07:57:47;;;;;;;12.03;6.53;;;8.30;32.00;;;;;;5456123;26;20346;-70
2024/04/23 08:00:13;;;;;;;11.38;6.80;;;8.30;23.00;;;;;;5488147;26;20334;-72
2024/04/23 08:02:39;;;;;;;9.43;6.22;;;8.30;21.80;;;;;;5488088;26;20334;-71
2024/04/23 08:05:05;;;;;;;11.65;6.68;;;8.40;22.40;;;;;;5487893;26;20326;-71
2024/04/23 08:07:32;;;;;;;11.80;6.93;;;8.50;22.10;;;;;;5456496;26;20318;-71
2024/04/23 08:09:59;;;;;;;15.10;7.80;;;8.70;22.20;;;;;;5488285;26;20330;-71
2024/04/23 08:12:25;;;;;;;10.55;6.38;;;8.30;22.50;;;;;;5487929;26;20362;-71
2024/04/23 08:14:50;;;;;;;24.53;6.70;;;8.40;22.50;;;;;;5488034;26;20753;-71
2024/04/23 08:17:16;;;;;;;9.27;4.87;;;8.60;26.50;;;;;;5488216;26;20322;-71
2024/04/23 08:19:41;;;;;;;10.63;5.10;;;8.50;18.80;;;;;;5489343;26;20326;-72
2024/04/23 08:22:07;;;;;;;8.73;5.80;;;8.40;19.40;;;;;;5488001;26;20365;-71
2024/04/23 08:24:32;;;;;;;11.40;5.47;;;8.40;28.50;;;;;;5487722;26;20356;-72
2024/04/23 08:26:58;;;;;;;8.93;5.57;;;8.40;19.40;;;;;;5487621;26;20326;-72
2024/04/23 08:29:23;;;;;;;7.67;5.90;;;8.30;20.00;;;;;;5488096;26;20475;-72
2024/04/23 08:31:49;;;;;;;9.15;5.25;;;8.60;18.90;;;;;;5488951;26;20370;-71
2024/04/23 08:34:14;;;;;;;10.90;5.50;;;8.60;19.50;;;;;;5488582;26;20322;-71
2024/04/23 08:36:40;;;;;;;12.27;4.88;;;9.00;26.30;;;;;;5475433;26;20692;-71
2024/04/23 08:39:05;;;;;;;7.80;5.38;;;8.90;24.10;;;;;;5479993;26;20891;-71
2024/04/23 08:41:38;;;;;;;8.47;4.90;;;8.80;18.10;;;;;;5487785;26;20326;-70
2024/04/23 08:44:06;;;;;;;7.75;4.97;;;8.70;24.70;;;;;;5487816;26;20338;-71
2024/04/23 08:46:32;;;;;;;10.13;5.80;;;8.80;23.30;;;;;;5487125;26;20354;-70
2024/04/23 08:48:59;;;;;;;12.27;5.35;;;8.80;17.10;;;;;;5488472;26;20330;-72
2024/04/23 08:51:25;;;;;;;8.90;5.15;;;8.90;18.10;;;;;;5481552;26;20435;-72
2024/04/23 08:53:53;;;;;;;14.15;8.60;;;9.20;17.20;;;;;;5489162;26;20392;-73
2024/04/23 08:56:22;;;;;;;9.27;5.30;;;9.40;16.60;;;;;;5487601;26;20334;-72
2024/04/23 08:58:49;;;;;;;10.10;4.95;;;9.60;15.40;;;;;;5495990;26;20332;-74
2024/04/23 09:01:29;;;;;;;8.93;4.28;;;9.50;15.90;;;;;;5502611;26;20814;-71
2024/04/23 09:03:55;;;;;;;6.28;4.05;;;10.00;14.30;;;;;;5505794;26;20322;-71
2024/04/23 09:06:22;;;;;;;5.65;3.70;;;10.00;16.30;;;;;;5474819;26;20932;-71
2024/04/23 09:08:48;;;;;;;9.82;5.93;;;9.70;15.40;;;;;;5487460;26;20361;-71
2024/04/23 09:11:14;;;;;;;7.00;4.30;;;9.90;19.70;;;;;;5493286;26;20330;-70
2024/04/23 09:13:40;;;;;;;6.72;3.92;;;9.90;13.90;;;;;;5457374;26;20377;-72
2024/04/23 09:16:06;;;;;;;6.30;3.60;;;9.90;13.60;;;;;;5457357;26;20328;-72
2024/04/23 09:18:32;;;;;;;7.70;5.00;;;10.30;12.30;;;;;;5451118;26;20672;-71
2024/04/23 09:20:58;;;;;;;9.32;4.75;;;10.40;15.70;;;;;;5450982;26;20371;-71
2024/04/23 09:23:27;;;;;;;6.45;4.35;;;10.40;14.50;;;;;;5451027;26;20320;-72
2024/04/23 09:25:54;;;;;;;10.63;5.25;;;10.40;11.60;;;;;;5451235;26;20365;-71
2024/04/23 09:28:21;;;;;;;5.72;3.50;;;10.60;12.20;;;;;;5451374;26;20337;-72
2024/04/23 09:30:48;;;;;;;7.43;3.70;;;11.10;9.90;;;;;;5419087;26;20826;-71
2024/04/23 09:33:13;;;;;;;8.30;4.70;;;10.90;10.40;;;;;;5451998;26;20340;-71
2024/04/23 09:35:39;;;;;;;8.10;4.10;;;10.80;11.70;;;;;;5450668;26;20850;-71
2024/04/23 09:38:06;;;;;;;8.00;4.20;;;11.30;12.80;;;;;;5450562;26;20697;-71
2024/04/23 09:40:41;;;;;;;6.00;4.20;;;11.10;13.60;;;;;;5450740;26;20375;-72
2024/04/23 09:43:07;;;;;;;6.78;4.13;;;10.40;15.00;;;;;;5450396;26;20377;-72
2024/04/23 09:45:33;;;;;;;6.50;4.20;;;10.40;15.20;;;;;;5450119;26;20337;-70
2024/04/23 09:47:58;;;;;;;6.50;4.17;;;10.50;11.20;;;;;;5450555;26;20337;-72
2024/04/23 09:50:30;;;;;;;11.27;5.53;;;10.60;11.60;;;;;;5450309;26;20325;-72
2024/04/23 09:53:04;;;;;;;5.78;4.55;;;11.10;11.70;;;;;;5449992;26;20321;-72
2024/04/23 09:55:29;;;;;;;6.22;4.03;;;11.20;11.20;;;;;;5449794;26;21009;-71
2024/04/23 09:57:55;;;;;;;6.20;4.30;;;11.30;14.00;;;;;;5418419;26;20329;-71
2024/04/23 10:00:20;;;;;;;9.20;5.10;;;11.20;10.30;;;;;;5449844;26;20329;-72
2024/04/23 10:02:58;;;;;;;8.30;5.90;;;10.90;11.60;;;;;;5450110;26;20834;-72
2024/04/23 10:05:29;;;;;;;9.02;5.63;;;10.60;12.30;;;;;;5449451;26;20329;-72
2024/04/23 10:08:08;;;;;;;12.63;5.27;;;10.60;12.80;;;;;;5450847;26;20561;-70
2024/04/23 10:10:47;;;;;;;7.93;5.30;;;10.80;14.90;;;;;;5451511;26;20420;-72
2024/04/23 10:13:19;;;;;;;7.88;4.70;;;10.80;11.80;;;;;;5451857;26;20337;-71
2024/04/23 10:16:09;;;;;;;10.82;5.10;;;10.80;13.30;;;;;;5449148;26;20345;-72
2024/04/23 10:18:48;;;;;;;11.90;4.90;;;11.10;10.60;;;;;;5450188;26;20337;-72
2024/04/23 10:21:22;;;;;;;8.43;5.10;;;11.40;10.90;;;;;;5449881;26;20386;-71
2024/04/23 10:23:52;;;;;;;10.40;5.20;;;11.60;10.40;;;;;;5449783;26;20411;-71
2024/04/23 10:26:18;;;;;;;8.30;5.50;;;11.50;13.70;;;;;;5449630;26;20455;-70
2024/04/23 10:28:44;;;;;;;8.73;5.22;;;11.70;10.40;;;;;;5450111;26;20375;-72
2024/04/23 10:31:10;;;;;;;7.15;5.20;;;12.10;14.30;;;;;;5449901;26;20325;-71
2024/04/23 10:33:37;;;;;;;13.38;5.18;;;12.30;9.60;;;;;;5449443;26;20676;-71
2024/04/23 10:36:05;;;;;;;6.70;5.20;;;12.00;10.60;;;;;;5449167;26;20336;-70
2024/04/23 10:38:33;;;;;;;8.40;5.00;;;12.30;8.60;;;;;;5417737;26;20337;-70
2024/04/23 10:40:59;;;;;;;11.30;5.13;;;12.70;8.00;;;;;;5449839;26;20333;-70
2024/04/23 10:43:26;;;;;;;8.88;5.20;;;12.10;7.80;;;;;;5450622;26;20385;-71
2024/04/23 10:45:52;;;;;;;8.10;5.20;;;12.30;8.90;;;;;;5451096;26;20329;-72
2024/04/23 10:48:25;;;;;;;8.10;4.70;;;12.60;7.20;;;;;;5418412;26;20722;-70
2024/04/23 10:50:58;;;;;;;9.73;4.97;;;12.70;7.30;;;;;;5449918;26;20431;-71
2024/04/23 10:53:23;;;;;;;6.00;4.05;;;12.80;6.30;;;;;;5449881;26;20337;-71
2024/04/23 10:55:50;;;;;;;8.20;4.20;;;12.40;7.30;;;;;;5449207;26;20373;-70
2024/04/23 10:58:18;;;;;;;7.28;4.00;;;12.00;8.00;;;;;;5417995;26;20333;-71
2024/04/23 11:00:44;;;;;;;6.95;4.85;;;12.00;9.30;;;;;;5419013;26;20513;-72
2024/04/23 11:03:17;;;;;;;6.80;4.60;;;12.00;11.50;;;;;;5451010;26;20391;-71
2024/04/23 11:05:47;;;;;;;7.95;4.53;;;12.00;9.40;;;;;;5452586;26;20356;-72
2024/04/23 11:08:24;;;;;;;9.68;6.00;;;12.10;9.40;;;;;;5421005;26;20380;-71
2024/04/23 11:11:03;;;;;;;8.70;5.97;;;12.10;11.80;;;;;;5454008;26;20373;-72
2024/04/23 11:13:30;;;;;;;12.83;6.50;;;11.50;11.10;;;;;;5455420;26;20325;-73
2024/04/23 11:16:02;;;;;;;11.07;6.75;;;11.50;11.70;;;;;;5453150;26;20321;-73
2024/04/23 11:18:41;;;;;;;12.73;8.20;;;11.50;11.80;;;;;;5452627;26;20708;-71
2024/04/23 11:21:11;;;;;;;13.27;7.60;;;10.90;12.00;;;;;;5451727;26;20337;-70
2024/04/23 11:23:39;;;;;;;11.40;7.82;;;10.80;14.30;;;;;;5451578;26;20944;-72
2024/04/23 11:26:09;;;;;;;9.97;7.07;;;10.80;11.90;;;;;;5453403;26;20324;-71
2024/04/23 11:28:36;;;;;;;10.73;7.80;;;10.70;11.30;;;;;;5420075;26;20336;-71
2024/04/23 11:31:02;;;;;;;16.65;8.23;;;10.70;11.10;;;;;;5451675;26;20321;-72
2024/04/23 11:33:29;;;;;;;12.35;7.68;;;10.80;13.90;;;;;;5452609;26;20349;-72
2024/04/23 11:35:54;;;;;;;12.13;8.23;;;10.70;13.90;;;;;;5452367;26;20333;-71
2024/04/23 11:38:20;;;;;;;13.73;8.38;;;10.80;9.90;;;;;;5452192;26;20424;-71
2024/04/23 11:40:49;;;;;;;13.35;7.32;;;11.10;10.10;;;;;;5451914;26;20373;-70
2024/04/23 11:43:18;;;;;;;9.00;7.00;;;11.40;12.80;;;;;;5451632;26;20333;-71
2024/04/23 11:45:46;;;;;;;14.33;7.20;;;11.50;8.70;;;;;;5451452;26;20329;-71
2024/04/23 11:48:13;;;;;;;11.67;6.70;;;12.10;11.10;;;;;;5452084;26;21028;-71
2024/04/23 11:50:38;;;;;;;13.63;7.10;;;12.40;11.10;;;;;;5452184;26;20341;-71
2024/04/23 11:53:06;;;;;;;8.82;6.00;;;13.10;9.30;;;;;;5451430;26;20333;-72
2024/04/23 11:55:31;;;;;;;8.68;6.32;;;13.00;5.80;;;;;;5451688;26;20853;-72
2024/04/23 11:57:57;;;;;;;13.70;6.55;;;12.50;6.70;;;;;;5452456;26;20357;-72
2024/04/23 12:00:27;;;;;;;8.90;6.72;;;12.70;6.90;;;;;;5453183;26;20712;-71
2024/04/23 12:02:53;;;;;;;11.48;7.00;;;12.80;6.10;;;;;;5453176;26;20365;-71
2024/04/23 12:05:20;;;;;;;12.48;6.70;;;13.00;9.60;;;;;;5452152;26;20329;-72
2024/04/23 12:07:46;;;;;;;8.80;6.10;;;13.50;8.30;;;;;;5453738;26;20318;-71
2024/04/23 12:10:31;;;;;;;7.20;5.72;;;13.20;12.40;;;;;;5453546;26;20364;-71
2024/04/23 12:12:57;;;;;;;11.27;6.10;;;12.20;10.40;;;;;;5455245;26;20329;-71
2024/04/23 12:15:23;;;;;;;10.60;6.60;;;12.70;8.30;;;;;;5452336;26;20421;-71
2024/04/23 12:17:49;;;;;;;10.20;6.43;;;13.00;12.20;;;;;;5451507;26;20361;-71
2024/04/23 12:20:15;;;;;;;10.45;6.80;;;12.90;9.10;;;;;;5451502;26;20329;-70
2024/04/23 12:22:44;;;;;;;12.88;6.97;;;13.50;10.50;;;;;;5419651;26;20332;-71
2024/04/23 12:25:17;;;;;;;12.45;6.50;;;13.90;6.80;;;;;;5451013;26;20353;-71
2024/04/23 12:27:46;;;;;;;6.45;4.47;;;14.00;8.60;;;;;;5451572;26;20337;-71
2024/04/23 12:30:13;;;;;;;7.60;5.20;;;13.00;4.00;;;;;;5420746;26;20379;-71
2024/04/23 12:32:40;;;;;;;7.78;5.70;;;12.30;7.30;;;;;;5453332;26;20351;-70
2024/04/23 12:35:06;;;;;;;9.57;4.88;;;12.60;7.40;;;;;;5454212;26;20697;-71
2024/04/23 12:37:32;;;;;;;7.45;5.30;;;12.30;8.70;;;;;;5455580;26;20333;-72
2024/04/23 12:39:58;;;;;;;9.60;6.07;;;11.90;8.10;;;;;;5455423;26;20345;-71
2024/04/23 12:42:26;;;;;;;8.40;5.57;;;11.60;9.30;;;;;;5454960;26;20341;-71
2024/04/23 12:44:52;;;;;;;13.20;6.80;;;11.60;13.60;;;;;;5452428;26;20798;-71
2024/04/23 12:47:17;;;;;;;9.80;5.80;;;11.50;9.30;;;;;;5451356;26;20364;-71
2024/04/23 12:49:43;;;;;;;9.25;6.03;;;11.30;10.40;;;;;;5453374;26;20381;-71